This is the latest recevied weather packets stored in our database for station/object OK1PMP-6. If no packets are shown the sender has not sent any weather packets the latest 1 day(s).
| Time | Temp. | Humidity | Pressure | Rain* | Wind** | Luminosity | Snow |
|---|---|---|---|---|---|---|---|
| 1777970693 | 21.11° C | 42% | 1011.5 hPa | 0 mm | 0 m/s | 622 W/m² | - |
| 1777969792 | 20.56° C | 42% | 1011.6 hPa | 0 mm | 0 m/s | 600 W/m² | - |
| 1777968891 | 20° C | 43% | 1011.7 hPa | 0 mm | 0.89 m/s, 63° | 568 W/m² | - |
| 1777967990 | 20° C | 47% | 1011.8 hPa | 0 mm | 0.45 m/s, 136° | 547 W/m² | - |
| 1777966184 | 18.89° C | 49% | 1012 hPa | 0 mm | 0 m/s | 503 W/m² | - |
| 1777965288 | 18.33° C | 50% | 1012 hPa | 0 mm | 0.45 m/s, 127° | 431 W/m² | - |
| 1777964382 | 18.33° C | 50% | 1012.2 hPa | 0 mm | 1.34 m/s, 71° | 470 W/m² | - |
| 1777963481 | 18.33° C | 54% | 1012 hPa | 0 mm | 0 m/s | 254 W/m² | - |
| 1777962583 | 17.78° C | 55% | 1012.3 hPa | 0 mm | 0 m/s | 449 W/m² | - |
| 1777961678 | 17.22° C | 62% | 1012.2 hPa | 0 mm | 0.89 m/s, 100° | 179 W/m² | - |
| 1777960777 | 16.11° C | 67% | 1012.4 hPa | 0 mm | 0.45 m/s, 36° | 237 W/m² | - |
| 1777959880 | 15.56° C | 77% | 1012.4 hPa | 0 mm | 0 m/s | 208 W/m² | - |
| 1777958972 | 14.44° C | 78% | 1012.3 hPa | 0 mm | 0 m/s | 206 W/m² | - |
| 1777958071 | 12.78° C | 83% | 1012.3 hPa | 0 mm | 0.89 m/s, 55° | 117 W/m² | - |
| 1777957169 | 12.78° C | 82% | 1012.2 hPa | 0 mm | 0 m/s | 54 W/m² | - |
| 1777956267 | 12.78° C | 83% | 1012 hPa | 0 mm | 0.45 m/s, 37° | 33 W/m² | - |
| 1777955366 | 12.22° C | 84% | 1012.4 hPa | 0 mm | 0 m/s | 26 W/m² | - |
| 1777954452 | 12.22° C | 82% | 1012.4 hPa | 0 mm | 0 m/s | 18 W/m² | - |
| 1777953555 | 12.78° C | 80% | 1012.2 hPa | 0 mm | 0 m/s | 10 W/m² | - |
| 1777952646 | 13.33° C | 80% | 1011.9 hPa | 0 mm | 0 m/s | 4 W/m² | - |
| 1777951746 | 13.33° C | 80% | 1011.8 hPa | 0 mm | 0 m/s | 2 W/m² | - |
| 1777950852 | 13.33° C | 82% | 1012 hPa | 0 mm | 0.45 m/s, 359° | 0 W/m² | - |
| 1777949943 | 13.33° C | 82% | 1012.4 hPa | 0 mm | 0.89 m/s, 111° | 0 W/m² | - |
| 1777949043 | 13.33° C | 84% | 1012.4 hPa | 0 mm | 1.34 m/s, 243° | 0 W/m² | - |
* Rain latest hour (hover to see other rain measurements)
** Current wind speed in m/s (hover to see current wind gust speed)